Time;durP1;ratioP1;P1;durP2;ratioP2;P2;SDS_P1;SDS_P2;PMS_P1;PMS_P2;Temp;Humidity;BMP_temperature;BMP_pressure;BME280_temperature;BME280_humidity;BME280_pressure;Samples;Min_cycle;Max_cycle;Signal;HPM_P1;HPM_P2
2022/11/07 00:00:25;;;;;;;598.75;536.85;;;;;;;;;;4913684;29;20443;-77
2022/11/07 00:02:51;;;;;;;596.30;534.30;;;;;;;;;;4914616;29;20455;-77
2022/11/07 00:05:17;;;;;;;596.78;534.97;;;;;;;;;;4913723;29;20530;-78
2022/11/07 00:07:43;;;;;;;603.67;541.55;;;;;;;;;;4909473;29;20454;-78
2022/11/07 00:10:09;;;;;;;600.58;538.38;;;;;;;;;;4909678;29;21017;-77
2022/11/07 00:12:35;;;;;;;602.05;540.03;;;;;;;;;;4908926;29;20798;-76
2022/11/07 00:18:59;;;;;;;;;;;;;;;;;;;;;
2022/11/07 00:21:38;;;;;;;604.65;542.45;;;;;;;;;;4939305;28;20466;-76
2022/11/07 00:24:11;;;;;;;610.25;547.85;;;;;;;;;;4920902;29;20442;-79
2022/11/07 00:27:10;;;;;;;;;;;;;;;;;;;;;
2022/11/07 00:29:40;;;;;;;612.25;549.47;;;;;;;;;;4913826;29;20439;-76
2022/11/07 00:32:06;;;;;;;611.10;548.30;;;;;;;;;;4908961;29;20567;-76
2022/11/07 00:34:34;;;;;;;615.38;552.67;;;;;;;;;;4912119;29;20446;-76
2022/11/07 00:37:00;;;;;;;608.08;545.35;;;;;;;;;;4910631;29;20462;-76
2022/11/07 00:39:27;;;;;;;605.10;541.80;;;;;;;;;;4911233;29;22284;-76
2022/11/07 00:41:53;;;;;;;602.63;539.45;;;;;;;;;;4891831;29;20427;-77
2022/11/07 00:44:19;;;;;;;607.13;543.90;;;;;;;;;;4910065;29;20427;-76
2022/11/07 00:46:45;;;;;;;609.50;545.92;;;;;;;;;;4908641;29;20518;-76
2022/11/07 00:49:11;;;;;;;605.60;542.65;;;;;;;;;;4910979;29;20520;-76
2022/11/07 00:51:43;;;;;;;610.40;547.03;;;;;;;;;;4914203;29;20495;-75
2022/11/07 00:54:20;;;;;;;607.87;544.63;;;;;;;;;;4911846;29;20440;-77
2022/11/07 00:56:46;;;;;;;606.58;543.08;;;;;;;;;;4909997;29;20447;-76
2022/11/07 00:59:12;;;;;;;611.43;547.83;;;;;;;;;;4908399;29;20617;-76
2022/11/07 01:01:38;;;;;;;605.85;542.45;;;;;;;;;;4909907;29;20941;-75
2022/11/07 01:06:49;;;;;;;609.50;546.30;;;;;;;;;;4910385;29;22008;-76
2022/11/07 01:09:20;;;;;;;613.42;549.92;;;;;;;;;;4925993;28;20578;-76
2022/11/07 01:11:46;;;;;;;613.15;549.67;;;;;;;;;;4908950;29;20480;-76
2022/11/07 01:14:13;;;;;;;613.90;550.70;;;;;;;;;;4928553;28;20447;-76
2022/11/07 01:16:40;;;;;;;617.35;553.72;;;;;;;;;;4909677;29;20435;-76
2022/11/07 01:19:06;;;;;;;613.15;549.45;;;;;;;;;;4910791;29;20454;-76
2022/11/07 01:21:33;;;;;;;612.97;549.53;;;;;;;;;;4913440;29;20437;-75
2022/11/07 01:24:00;;;;;;;614.95;551.58;;;;;;;;;;4911778;29;20438;-76
2022/11/07 01:26:26;;;;;;;611.17;547.88;;;;;;;;;;4909485;29;20449;-77
2022/11/07 01:28:52;;;;;;;617.47;554.08;;;;;;;;;;4908672;29;20451;-76
2022/11/07 01:31:18;;;;;;;615.83;552.67;;;;;;;;;;4924894;28;20543;-76
2022/11/07 01:33:45;;;;;;;613.15;550.30;;;;;;;;;;4908563;29;20941;-76
2022/11/07 01:36:13;;;;;;;611.83;549.50;;;;;;;;;;4912981;29;20479;-76
2022/11/07 01:38:40;;;;;;;607.90;545.77;;;;;;;;;;4908940;29;20439;-76
2022/11/07 01:41:23;;;;;;;620.05;558.10;;;;;;;;;;4906406;29;20507;-76
2022/11/07 01:43:52;;;;;;;615.28;553.17;;;;;;;;;;4925204;28;20603;-76
2022/11/07 01:46:18;;;;;;;614.72;552.28;;;;;;;;;;4908989;29;20439;-77
2022/11/07 01:48:49;;;;;;;615.40;553.60;;;;;;;;;;4908963;29;20439;-76
2022/11/07 01:51:16;;;;;;;614.60;552.40;;;;;;;;;;4907944;29;21380;-77
2022/11/07 01:53:42;;;;;;;610.58;547.58;;;;;;;;;;4909283;29;20435;-77
2022/11/07 01:56:11;;;;;;;617.80;556.40;;;;;;;;;;4909100;29;20615;-77
2022/11/07 01:58:37;;;;;;;623.60;562.83;;;;;;;;;;4908202;29;20865;-76
2022/11/07 02:01:03;;;;;;;628.58;566.78;;;;;;;;;;4908351;29;20447;-76
2022/11/07 02:03:29;;;;;;;625.40;564.67;;;;;;;;;;4909427;29;20474;-76
2022/11/07 02:05:58;;;;;;;618.10;554.88;;;;;;;;;;4907195;29;20438;-77
2022/11/07 02:08:25;;;;;;;616.58;552.95;;;;;;;;;;4926694;28;20995;-76
2022/11/07 02:10:52;;;;;;;617.08;553.47;;;;;;;;;;4908294;29;20981;-77
2022/11/07 02:13:22;;;;;;;613.30;550.00;;;;;;;;;;4908325;29;20532;-77
2022/11/07 02:15:49;;;;;;;613.03;549.75;;;;;;;;;;4907894;29;20803;-77
2022/11/07 02:18:15;;;;;;;614.63;550.92;;;;;;;;;;4909323;29;20427;-76
2022/11/07 02:20:41;;;;;;;612.22;548.90;;;;;;;;;;4906844;29;20455;-77
2022/11/07 02:23:36;;;;;;;615.08;551.38;;;;;;;;;;4907445;29;20483;-77
2022/11/07 02:26:02;;;;;;;615.15;551.65;;;;;;;;;;4903175;29;20498;-76
2022/11/07 02:28:29;;;;;;;615.53;551.97;;;;;;;;;;4907302;29;20434;-76
2022/11/07 02:30:55;;;;;;;612.95;549.45;;;;;;;;;;4907213;29;20447;-76
2022/11/07 02:33:22;;;;;;;612.38;548.55;;;;;;;;;;4907973;29;20447;-76
2022/11/07 02:35:49;;;;;;;610.42;546.72;;;;;;;;;;4929174;28;20450;-76
2022/11/07 02:38:18;;;;;;;613.57;549.77;;;;;;;;;;4908489;29;20480;-76
2022/11/07 02:40:46;;;;;;;611.72;548.25;;;;;;;;;;4908101;29;20525;-77
2022/11/07 02:43:13;;;;;;;623.55;561.17;;;;;;;;;;4907705;29;20501;-77
2022/11/07 02:45:41;;;;;;;618.10;556.08;;;;;;;;;;4908501;29;21077;-77
2022/11/07 02:48:07;;;;;;;616.35;554.10;;;;;;;;;;4910826;29;20515;-77
2022/11/07 02:50:33;;;;;;;619.60;557.25;;;;;;;;;;4907630;29;20496;-77
2022/11/07 02:52:59;;;;;;;616.92;554.25;;;;;;;;;;4908900;29;20775;-77
2022/11/07 02:55:25;;;;;;;611.38;549.15;;;;;;;;;;4910569;29;20455;-75
2022/11/07 02:57:51;;;;;;;610.53;548.10;;;;;;;;;;4910952;29;20435;-76
2022/11/07 03:00:17;;;;;;;612.08;549.75;;;;;;;;;;4910243;29;20467;-76
2022/11/07 03:02:45;;;;;;;615.87;553.17;;;;;;;;;;4909473;29;20443;-76
2022/11/07 03:05:12;;;;;;;610.72;548.22;;;;;;;;;;4912522;29;20522;-76
2022/11/07 03:07:38;;;;;;;616.45;554.85;;;;;;;;;;4894856;29;20473;-76
2022/11/07 03:10:04;;;;;;;614.88;553.03;;;;;;;;;;4911547;29;20435;-76
2022/11/07 03:12:31;;;;;;;611.28;549.70;;;;;;;;;;4910250;29;20743;-76
2022/11/07 03:14:57;;;;;;;617.17;556.40;;;;;;;;;;4909467;29;20524;-76
2022/11/07 03:17:23;;;;;;;618.92;556.42;;;;;;;;;;4910544;29;20455;-77
2022/11/07 03:19:49;;;;;;;614.40;552.00;;;;;;;;;;4913905;29;20536;-77
2022/11/07 03:22:15;;;;;;;612.67;550.42;;;;;;;;;;4913136;29;20459;-77
2022/11/07 03:24:41;;;;;;;617.93;555.57;;;;;;;;;;4912791;29;21501;-76
2022/11/07 03:27:07;;;;;;;621.00;558.50;;;;;;;;;;4912883;29;20447;-77
2022/11/07 03:29:33;;;;;;;617.10;555.60;;;;;;;;;;4912999;29;21120;-77
2022/11/07 03:31:59;;;;;;;618.78;556.38;;;;;;;;;;4912608;29;20462;-77
2022/11/07 03:34:25;;;;;;;618.27;555.70;;;;;;;;;;4914117;29;21054;-77
2022/11/07 03:36:51;;;;;;;617.83;555.42;;;;;;;;;;4915664;29;20451;-76
2022/11/07 03:39:17;;;;;;;620.77;558.10;;;;;;;;;;4913208;29;20477;-74
2022/11/07 03:41:43;;;;;;;619.38;557.08;;;;;;;;;;4898365;29;20541;-77
2022/11/07 03:44:09;;;;;;;618.47;557.47;;;;;;;;;;4927680;28;20443;-77
2022/11/07 03:46:35;;;;;;;619.10;557.72;;;;;;;;;;4897912;29;20438;-77
2022/11/07 03:49:01;;;;;;;617.42;556.33;;;;;;;;;;4911559;29;20877;-77
2022/11/07 03:51:27;;;;;;;632.20;569.53;;;;;;;;;;4911521;29;20467;-76
2022/11/07 03:53:53;;;;;;;616.22;554.63;;;;;;;;;;4912662;29;21524;-76
2022/11/07 03:56:19;;;;;;;616.00;554.38;;;;;;;;;;4913214;29;20454;-77
2022/11/07 03:58:45;;;;;;;612.92;551.22;;;;;;;;;;4914276;29;20447;-76
2022/11/07 04:01:12;;;;;;;613.75;552.15;;;;;;;;;;4913722;29;20853;-76
2022/11/07 04:03:38;;;;;;;611.42;549.92;;;;;;;;;;4914850;29;20522;-77
2022/11/07 04:06:04;;;;;;;613.20;551.72;;;;;;;;;;4914143;29;20446;-77
2022/11/07 04:08:30;;;;;;;614.77;552.27;;;;;;;;;;4912831;29;20478;-77
2022/11/07 04:10:56;;;;;;;614.58;552.20;;;;;;;;;;4913174;29;20523;-77
2022/11/07 04:17:17;;;;;;;611.67;549.58;;;;;;;;;;4930847;28;20454;-76
2022/11/07 04:18:55;;;;;;;615.67;553.42;;;;;;;;;;4913315;29;20450;-76
2022/11/07 04:21:21;;;;;;;615.28;553.47;;;;;;;;;;4912879;29;20506;-77
2022/11/07 04:23:47;;;;;;;610.58;549.08;;;;;;;;;;4913942;29;20569;-76
2022/11/07 04:29:00;;;;;;;610.53;548.70;;;;;;;;;;4912882;29;20651;-77
2022/11/07 04:31:26;;;;;;;612.42;550.42;;;;;;;;;;4913627;29;20948;-77
2022/11/07 04:33:52;;;;;;;610.92;548.95;;;;;;;;;;4912312;29;20431;-76
2022/11/07 04:36:18;;;;;;;614.00;552.50;;;;;;;;;;4911620;29;20549;-77
2022/11/07 04:38:44;;;;;;;612.75;550.95;;;;;;;;;;4913504;29;20447;-77
2022/11/07 04:41:23;;;;;;;611.42;550.30;;;;;;;;;;4914010;29;20842;-76
2022/11/07 04:43:49;;;;;;;611.35;550.28;;;;;;;;;;4913694;29;20435;-77
2022/11/07 04:46:15;;;;;;;610.87;549.07;;;;;;;;;;4912345;29;20796;-77
2022/11/07 04:48:42;;;;;;;612.58;551.28;;;;;;;;;;4913904;29;20482;-77
2022/11/07 04:51:16;;;;;;;612.97;551.17;;;;;;;;;;4911953;29;20653;-77
2022/11/07 04:53:42;;;;;;;618.95;557.65;;;;;;;;;;4931893;28;20581;-77
2022/11/07 04:56:08;;;;;;;617.25;555.45;;;;;;;;;;4912292;29;20454;-76
2022/11/07 04:58:34;;;;;;;619.72;557.97;;;;;;;;;;4911580;29;20506;-76
2022/11/07 05:01:00;;;;;;;618.30;556.20;;;;;;;;;;4926055;28;22356;-76
2022/11/07 05:03:26;;;;;;;618.70;556.10;;;;;;;;;;4911343;29;20443;-76
2022/11/07 05:05:52;;;;;;;618.85;556.25;;;;;;;;;;4910585;29;20534;-76
2022/11/07 05:08:18;;;;;;;622.85;560.20;;;;;;;;;;4912134;29;20581;-76
2022/11/07 05:10:44;;;;;;;620.80;558.05;;;;;;;;;;4911698;29;20458;-76
2022/11/07 05:13:10;;;;;;;619.55;556.83;;;;;;;;;;4912417;29;20443;-76
2022/11/07 05:15:37;;;;;;;622.42;559.75;;;;;;;;;;4910398;29;20443;-76
2022/11/07 05:18:03;;;;;;;622.08;559.22;;;;;;;;;;4894944;29;21011;-76
2022/11/07 05:20:29;;;;;;;621.10;558.50;;;;;;;;;;4909715;29;20459;-76
2022/11/07 05:23:14;;;;;;;616.55;553.95;;;;;;;;;;4931332;28;20458;-76
2022/11/07 05:25:44;;;;;;;613.38;550.67;;;;;;;;;;4911296;29;20451;-77
2022/11/07 05:28:11;;;;;;;615.15;552.67;;;;;;;;;;4931082;28;20486;-76
2022/11/07 05:30:40;;;;;;;618.78;556.03;;;;;;;;;;4907511;29;20446;-76
2022/11/07 05:33:07;;;;;;;612.55;550.00;;;;;;;;;;4909385;29;20439;-79
2022/11/07 05:35:33;;;;;;;610.83;548.72;;;;;;;;;;4895788;29;21382;-77
2022/11/07 05:37:59;;;;;;;611.60;549.05;;;;;;;;;;4910449;29;20482;-75
2022/11/07 05:40:25;;;;;;;609.60;547.20;;;;;;;;;;4911509;29;20490;-75
2022/11/07 05:42:51;;;;;;;609.75;547.65;;;;;;;;;;4910533;29;20435;-77
2022/11/07 05:45:17;;;;;;;605.83;543.42;;;;;;;;;;4912636;29;20449;-76
2022/11/07 05:47:43;;;;;;;609.53;547.03;;;;;;;;;;4912812;29;20933;-76
2022/11/07 05:50:09;;;;;;;612.45;550.05;;;;;;;;;;4912740;29;20447;-75
2022/11/07 05:52:35;;;;;;;617.07;554.30;;;;;;;;;;4909887;29;20607;-75
2022/11/07 05:55:01;;;;;;;616.60;554.13;;;;;;;;;;4911429;29;20442;-76
2022/11/07 05:57:29;;;;;;;615.33;552.88;;;;;;;;;;4909232;29;20495;-76
2022/11/07 05:59:55;;;;;;;614.95;552.00;;;;;;;;;;4923299;28;20482;-79
2022/11/07 06:02:21;;;;;;;614.83;552.53;;;;;;;;;;4911804;29;20533;-76
2022/11/07 06:04:47;;;;;;;614.20;551.53;;;;;;;;;;4911461;29;20435;-75
2022/11/07 06:07:13;;;;;;;620.70;557.72;;;;;;;;;;4909535;29;20490;-75
2022/11/07 06:09:39;;;;;;;621.63;558.67;;;;;;;;;;4906413;29;20503;-79
2022/11/07 06:12:05;;;;;;;620.00;556.97;;;;;;;;;;4909209;29;20559;-77
2022/11/07 06:14:31;;;;;;;617.67;554.67;;;;;;;;;;4910607;29;20809;-75
2022/11/07 06:16:57;;;;;;;624.53;561.42;;;;;;;;;;4908811;29;20450;-76
2022/11/07 06:19:23;;;;;;;616.63;553.67;;;;;;;;;;4906478;29;20440;-77
2022/11/07 06:21:49;;;;;;;621.85;559.08;;;;;;;;;;4908644;29;20964;-77
2022/11/07 06:24:15;;;;;;;615.95;552.97;;;;;;;;;;4927629;28;20506;-77
2022/11/07 06:26:41;;;;;;;614.67;551.70;;;;;;;;;;4907804;29;21088;-77
2022/11/07 06:29:07;;;;;;;612.35;549.47;;;;;;;;;;4931131;28;21776;-78
2022/11/07 06:31:33;;;;;;;617.25;554.20;;;;;;;;;;4906470;29;20484;-77
2022/11/07 06:33:59;;;;;;;615.17;551.97;;;;;;;;;;4907805;29;20786;-77
2022/11/07 06:36:25;;;;;;;620.90;557.42;;;;;;;;;;4922541;28;20443;-77
2022/11/07 06:38:52;;;;;;;612.97;549.97;;;;;;;;;;4909082;29;20750;-77
2022/11/07 06:41:18;;;;;;;612.28;548.88;;;;;;;;;;4909983;29;20442;-77
2022/11/07 06:43:44;;;;;;;607.25;543.75;;;;;;;;;;4895058;29;20447;-78
2022/11/07 06:46:12;;;;;;;609.55;546.13;;;;;;;;;;4909314;29;20447;-78
2022/11/07 06:48:38;;;;;;;608.78;545.33;;;;;;;;;;4907358;29;21852;-76
2022/11/07 06:51:05;;;;;;;612.15;548.58;;;;;;;;;;4909190;29;20493;-78
2022/11/07 06:53:32;;;;;;;614.85;551.38;;;;;;;;;;4907310;29;20435;-77
2022/11/07 06:56:02;;;;;;;614.30;550.58;;;;;;;;;;4907163;29;20475;-77
2022/11/07 06:58:28;;;;;;;611.25;547.78;;;;;;;;;;4908006;29;20519;-77
2022/11/07 07:00:57;;;;;;;619.75;555.95;;;;;;;;;;4908841;29;21000;-78
2022/11/07 07:03:24;;;;;;;613.08;549.67;;;;;;;;;;4911673;29;20449;-77
2022/11/07 07:05:50;;;;;;;610.85;547.55;;;;;;;;;;4911121;29;20975;-77
2022/11/07 07:08:16;;;;;;;614.45;551.05;;;;;;;;;;4894421;29;20463;-77
2022/11/07 07:10:43;;;;;;;614.83;551.55;;;;;;;;;;4909735;29;20431;-76
2022/11/07 07:13:09;;;;;;;613.55;550.03;;;;;;;;;;4906887;29;22463;-76
2022/11/07 07:15:35;;;;;;;617.15;553.40;;;;;;;;;;4909412;29;21264;-74
2022/11/07 07:18:01;;;;;;;615.92;552.22;;;;;;;;;;4909817;29;20868;-74
2022/11/07 07:20:29;;;;;;;619.95;555.95;;;;;;;;;;4906642;29;20550;-73
2022/11/07 07:22:55;;;;;;;615.83;552.03;;;;;;;;;;4913747;29;20439;-74
2022/11/07 07:25:21;;;;;;;616.45;552.65;;;;;;;;;;4931226;28;20461;-75
2022/11/07 07:27:47;;;;;;;621.05;557.10;;;;;;;;;;4908220;29;21200;-76
2022/11/07 07:30:13;;;;;;;618.63;554.80;;;;;;;;;;4928941;28;20478;-74
2022/11/07 07:32:39;;;;;;;621.47;557.42;;;;;;;;;;4910638;29;20454;-75
2022/11/07 07:35:06;;;;;;;617.42;553.35;;;;;;;;;;4911167;29;20834;-76
2022/11/07 07:37:32;;;;;;;625.95;561.75;;;;;;;;;;4909174;29;20494;-76
2022/11/07 07:39:58;;;;;;;624.55;560.45;;;;;;;;;;4909132;29;20481;-74
2022/11/07 07:42:24;;;;;;;626.35;562.42;;;;;;;;;;4911869;29;21305;-76
2022/11/07 07:44:50;;;;;;;622.65;559.63;;;;;;;;;;4912679;29;21055;-74
2022/11/07 07:47:16;;;;;;;623.47;559.77;;;;;;;;;;4914517;29;20590;-76
2022/11/07 07:49:42;;;;;;;632.80;570.20;;;;;;;;;;4912235;29;20439;-74
2022/11/07 07:52:08;;;;;;;631.23;569.03;;;;;;;;;;4912396;29;20427;-74
2022/11/07 07:54:36;;;;;;;625.15;561.22;;;;;;;;;;4913942;29;21098;-74
2022/11/07 07:57:03;;;;;;;625.90;561.40;;;;;;;;;;4912832;29;20447;-75
2022/11/07 07:59:29;;;;;;;628.80;564.80;;;;;;;;;;4914383;29;20431;-75
2022/11/07 08:01:55;;;;;;;626.72;562.58;;;;;;;;;;4931442;28;20459;-75
2022/11/07 08:04:21;;;;;;;626.60;562.28;;;;;;;;;;4914314;29;20435;-75
2022/11/07 08:06:47;;;;;;;627.78;563.33;;;;;;;;;;4913337;29;20431;-75
2022/11/07 08:09:13;;;;;;;631.90;567.55;;;;;;;;;;4913993;29;20810;-74
2022/11/07 08:11:39;;;;;;;633.55;569.45;;;;;;;;;;4914057;29;20523;-74
2022/11/07 08:14:05;;;;;;;633.30;569.03;;;;;;;;;;4915656;29;20512;-74
2022/11/07 08:16:31;;;;;;;631.92;567.92;;;;;;;;;;4913681;29;20458;-75
2022/11/07 08:18:57;;;;;;;633.85;569.95;;;;;;;;;;4934178;28;20549;-75
2022/11/07 08:21:23;;;;;;;635.65;571.45;;;;;;;;;;4913666;29;20439;-74
2022/11/07 08:23:52;;;;;;;631.97;567.97;;;;;;;;;;4915239;29;20530;-75
2022/11/07 08:26:18;;;;;;;636.13;571.95;;;;;;;;;;4912616;29;20961;-74
2022/11/07 08:28:44;;;;;;;633.25;568.95;;;;;;;;;;4915017;29;20439;-74
2022/11/07 08:31:11;;;;;;;635.22;571.03;;;;;;;;;;4914482;29;20428;-74
2022/11/07 08:33:37;;;;;;;639.80;575.35;;;;;;;;;;4911890;29;20443;-74
2022/11/07 08:36:05;;;;;;;639.37;574.87;;;;;;;;;;4897749;29;20451;-74
2022/11/07 08:38:32;;;;;;;641.58;577.08;;;;;;;;;;4912201;29;20431;-75
2022/11/07 08:40:58;;;;;;;638.22;573.63;;;;;;;;;;4912850;29;20443;-75
2022/11/07 08:43:24;;;;;;;638.78;574.38;;;;;;;;;;4934178;28;20786;-75
2022/11/07 08:45:52;;;;;;;642.10;577.10;;;;;;;;;;4915009;29;20446;-74
2022/11/07 08:48:18;;;;;;;644.00;579.17;;;;;;;;;;4913254;29;20575;-75
2022/11/07 08:50:44;;;;;;;647.17;582.28;;;;;;;;;;4913048;29;20493;-75
2022/11/07 08:53:10;;;;;;;647.97;582.78;;;;;;;;;;4912907;29;21762;-75
2022/11/07 08:55:36;;;;;;;649.20;584.20;;;;;;;;;;4927864;28;20428;-74
2022/11/07 08:58:06;;;;;;;651.40;586.30;;;;;;;;;;4911291;29;20431;-73
2022/11/07 09:00:33;;;;;;;650.08;584.78;;;;;;;;;;4911681;29;20431;-77
2022/11/07 09:03:03;;;;;;;647.17;581.97;;;;;;;;;;4912856;29;20505;-75
2022/11/07 09:05:30;;;;;;;649.65;584.35;;;;;;;;;;4912015;29;20702;-75
2022/11/07 09:07:56;;;;;;;649.60;584.40;;;;;;;;;;4913197;29;20458;-75
2022/11/07 09:10:22;;;;;;;650.83;585.42;;;;;;;;;;4911618;29;21028;-75
2022/11/07 09:12:49;;;;;;;651.80;586.30;;;;;;;;;;4911600;29;20439;-75
2022/11/07 09:15:15;;;;;;;655.28;589.67;;;;;;;;;;4915626;29;20470;-75
2022/11/07 09:17:42;;;;;;;653.50;588.00;;;;;;;;;;4912361;29;20432;-74
2022/11/07 09:20:08;;;;;;;653.38;587.78;;;;;;;;;;4927033;28;20818;-74
2022/11/07 09:22:35;;;;;;;659.50;593.58;;;;;;;;;;4910640;29;20440;-75
2022/11/07 09:25:01;;;;;;;658.33;592.33;;;;;;;;;;4911656;29;20446;-78
2022/11/07 09:27:27;;;;;;;659.53;593.73;;;;;;;;;;4911989;29;20540;-77
2022/11/07 09:29:53;;;;;;;654.63;588.78;;;;;;;;;;4894804;29;20459;-76
2022/11/07 09:32:19;;;;;;;663.47;597.38;;;;;;;;;;4912094;29;21212;-77
2022/11/07 09:34:45;;;;;;;662.83;596.72;;;;;;;;;;4910488;29;20522;-77
2022/11/07 09:37:11;;;;;;;665.53;599.20;;;;;;;;;;4910338;29;21226;-77
2022/11/07 09:39:37;;;;;;;664.83;598.63;;;;;;;;;;4910967;29;20443;-76
2022/11/07 09:42:30;;;;;;;673.65;607.35;;;;;;;;;;4910794;29;20513;-76
2022/11/07 09:44:57;;;;;;;676.47;609.85;;;;;;;;;;4909037;28;20446;-76
2022/11/07 09:47:32;;;;;;;670.45;604.22;;;;;;;;;;4910987;29;20442;-77
2022/11/07 09:50:00;;;;;;;679.13;612.92;;;;;;;;;;4909926;29;20977;-76
2022/11/07 09:52:37;;;;;;;671.65;605.38;;;;;;;;;;4910863;29;20577;-76
2022/11/07 09:55:18;;;;;;;669.60;603.45;;;;;;;;;;4931056;28;20488;-76
2022/11/07 09:57:44;;;;;;;675.47;609.25;;;;;;;;;;4928770;28;20439;-77
2022/11/07 10:00:14;;;;;;;676.55;610.28;;;;;;;;;;4909550;28;20442;-77
2022/11/07 10:02:42;;;;;;;676.83;610.60;;;;;;;;;;4910341;29;20783;-77
2022/11/07 10:05:12;;;;;;;677.30;611.00;;;;;;;;;;4909306;29;20544;-77
2022/11/07 10:07:38;;;;;;;678.00;611.45;;;;;;;;;;4909043;29;20435;-77
2022/11/07 10:10:05;;;;;;;677.67;611.17;;;;;;;;;;4911258;29;20957;-77
2022/11/07 10:12:37;;;;;;;678.33;611.92;;;;;;;;;;4911910;29;20439;-78
2022/11/07 10:15:03;;;;;;;679.92;613.33;;;;;;;;;;4910389;28;20447;-76
2022/11/07 10:17:44;;;;;;;689.08;622.38;;;;;;;;;;4910304;29;20813;-77
2022/11/07 10:20:29;;;;;;;684.17;617.35;;;;;;;;;;4910871;29;21442;-77
2022/11/07 10:23:00;;;;;;;686.40;619.55;;;;;;;;;;4910993;29;20438;-76
2022/11/07 10:25:38;;;;;;;685.13;618.40;;;;;;;;;;4910755;28;20546;-77
2022/11/07 10:28:07;;;;;;;686.43;619.53;;;;;;;;;;4910600;29;20465;-77
2022/11/07 10:30:33;;;;;;;687.30;620.33;;;;;;;;;;4910509;29;20499;-77
2022/11/07 10:33:25;;;;;;;695.42;628.92;;;;;;;;;;4910294;29;20450;-76
2022/11/07 10:35:57;;;;;;;696.08;629.22;;;;;;;;;;4909219;29;20627;-76
2022/11/07 10:38:27;;;;;;;694.37;627.27;;;;;;;;;;4910802;29;20442;-77
2022/11/07 10:40:54;;;;;;;695.60;628.50;;;;;;;;;;4910729;29;20452;-76
2022/11/07 10:43:32;;;;;;;695.17;627.97;;;;;;;;;;4910549;29;20427;-76
2022/11/07 10:45:59;;;;;;;696.38;629.22;;;;;;;;;;4928574;28;20443;-76
2022/11/07 10:48:28;;;;;;;697.42;630.22;;;;;;;;;;4927765;28;20450;-76
2022/11/07 10:50:54;;;;;;;706.90;639.70;;;;;;;;;;4910562;28;20445;-78
2022/11/07 10:53:21;;;;;;;703.50;636.10;;;;;;;;;;4910828;29;20915;-78
2022/11/07 10:55:49;;;;;;;704.47;637.28;;;;;;;;;;4910894;29;20477;-79
2022/11/07 10:58:18;;;;;;;702.85;635.55;;;;;;;;;;4910310;29;20439;-77
2022/11/07 11:00:55;;;;;;;702.83;635.53;;;;;;;;;;4910604;28;20606;-78
2022/11/07 11:03:26;;;;;;;701.97;634.47;;;;;;;;;;4910099;29;20435;-77
2022/11/07 11:05:52;;;;;;;706.78;639.38;;;;;;;;;;4910436;29;20447;-77
2022/11/07 11:08:20;;;;;;;715.28;648.28;;;;;;;;;;4931319;28;21028;-78
2022/11/07 11:10:46;;;;;;;708.20;641.50;;;;;;;;;;4910035;29;20559;-77
2022/11/07 11:13:29;;;;;;;707.17;639.67;;;;;;;;;;4909817;29;20443;-77
2022/11/07 11:15:57;;;;;;;709.58;641.75;;;;;;;;;;4911147;28;20443;-77
2022/11/07 11:18:23;;;;;;;707.35;639.85;;;;;;;;;;4913890;29;20529;-77
2022/11/07 11:20:57;;;;;;;707.58;639.97;;;;;;;;;;4915873;28;20440;-76
2022/11/07 11:23:25;;;;;;;702.90;635.50;;;;;;;;;;4930414;28;21004;-77
2022/11/07 11:25:57;;;;;;;707.83;640.33;;;;;;;;;;4934971;28;20443;-77
2022/11/07 11:28:27;;;;;;;712.75;644.95;;;;;;;;;;4915851;29;20486;-77
2022/11/07 11:31:05;;;;;;;710.53;642.95;;;;;;;;;;4913609;29;20443;-77
2022/11/07 11:33:38;;;;;;;713.80;646.28;;;;;;;;;;4914111;29;20435;-77
2022/11/07 11:36:15;;;;;;;714.95;647.33;;;;;;;;;;4912709;29;20524;-76
2022/11/07 11:38:41;;;;;;;721.17;653.42;;;;;;;;;;4914119;29;20541;-76
2022/11/07 11:41:14;;;;;;;729.38;661.58;;;;;;;;;;4913881;29;20945;-77
2022/11/07 11:43:47;;;;;;;724.05;656.15;;;;;;;;;;4913324;29;20439;-76
2022/11/07 11:46:25;;;;;;;729.35;661.15;;;;;;;;;;4913633;28;20493;-76
2022/11/07 11:48:53;;;;;;;727.75;659.65;;;;;;;;;;4913956;29;20453;-76
2022/11/07 11:51:38;;;;;;;729.45;661.15;;;;;;;;;;4913125;29;20771;-76
2022/11/07 11:54:08;;;;;;;736.25;667.85;;;;;;;;;;4913597;29;20439;-76
2022/11/07 11:56:44;;;;;;;734.88;666.58;;;;;;;;;;4913653;29;20451;-76
2022/11/07 11:59:22;;;;;;;742.92;674.22;;;;;;;;;;4912565;29;20444;-76
2022/11/07 12:01:51;;;;;;;741.67;673.17;;;;;;;;;;4934103;28;20506;-76
2022/11/07 12:04:26;;;;;;;744.55;675.95;;;;;;;;;;4913616;29;20455;-76
2022/11/07 12:06:57;;;;;;;744.35;675.85;;;;;;;;;;4912905;29;25107;-75
2022/11/07 12:09:37;;;;;;;746.85;678.30;;;;;;;;;;4914554;29;20440;-76
2022/11/07 12:12:03;;;;;;;743.53;674.95;;;;;;;;;;4913047;28;20471;-78
2022/11/07 12:14:30;;;;;;;746.33;677.63;;;;;;;;;;4912919;29;20531;-77
2022/11/07 12:17:04;;;;;;;746.27;677.77;;;;;;;;;;4913190;29;20443;-76
2022/11/07 12:19:33;;;;;;;750.07;681.23;;;;;;;;;;4909837;29;20435;-76
2022/11/07 12:22:06;;;;;;;747.25;678.63;;;;;;;;;;4933657;28;20465;-76
2022/11/07 12:24:32;;;;;;;748.33;679.63;;;;;;;;;;4913085;29;22499;-77
2022/11/07 12:27:19;;;;;;;749.05;680.40;;;;;;;;;;4911358;28;20432;-77
2022/11/07 12:30:03;;;;;;;752.28;683.65;;;;;;;;;;4912298;29;20953;-76
2022/11/07 12:32:29;;;;;;;757.78;688.88;;;;;;;;;;4912639;29;25101;-77
2022/11/07 12:35:14;;;;;;;756.08;687.08;;;;;;;;;;4912654;29;20443;-76
2022/11/07 12:37:46;;;;;;;758.65;689.65;;;;;;;;;;4912497;29;25183;-77
2022/11/07 12:40:32;;;;;;;764.70;695.45;;;;;;;;;;4927045;28;20456;-75
2022/11/07 12:42:58;;;;;;;761.53;692.53;;;;;;;;;;4911584;28;20814;-76
2022/11/07 12:45:24;;;;;;;762.63;693.55;;;;;;;;;;4911844;29;20483;-77
2022/11/07 12:47:50;;;;;;;765.50;696.38;;;;;;;;;;4911491;28;20479;-77
2022/11/07 12:50:26;;;;;;;769.47;700.15;;;;;;;;;;4912465;29;20527;-78
2022/11/07 12:53:13;;;;;;;765.15;696.05;;;;;;;;;;4911670;29;25105;-76
2022/11/07 12:55:41;;;;;;;769.33;700.15;;;;;;;;;;4912525;29;25171;-76
2022/11/07 12:58:16;;;;;;;769.22;700.03;;;;;;;;;;4910982;29;20461;-75
2022/11/07 13:00:43;;;;;;;769.73;700.57;;;;;;;;;;4927853;28;20554;-76
2022/11/07 13:03:09;;;;;;;767.00;697.75;;;;;;;;;;4910951;28;20510;-76
2022/11/07 13:05:35;;;;;;;764.00;694.95;;;;;;;;;;4912326;29;20455;-75
2022/11/07 13:08:08;;;;;;;761.83;692.83;;;;;;;;;;4912256;28;20435;-76
2022/11/07 13:10:45;;;;;;;764.85;695.67;;;;;;;;;;4912084;29;20451;-76
2022/11/07 13:13:17;;;;;;;757.53;688.67;;;;;;;;;;4926003;28;20446;-76
2022/11/07 13:15:43;;;;;;;756.60;687.63;;;;;;;;;;4910926;29;20521;-76
2022/11/07 13:18:24;;;;;;;763.30;694.20;;;;;;;;;;4909457;29;20810;-75
2022/11/07 13:20:58;;;;;;;760.20;691.25;;;;;;;;;;4911564;29;20567;-75
2022/11/07 13:23:25;;;;;;;758.72;689.83;;;;;;;;;;4910995;29;20440;-77
2022/11/07 13:25:57;;;;;;;755.55;686.78;;;;;;;;;;4911798;29;20423;-76
2022/11/07 13:28:44;;;;;;;755.20;686.50;;;;;;;;;;4910488;29;21603;-76
2022/11/07 13:31:30;;;;;;;749.30;680.70;;;;;;;;;;4928606;28;25191;-77
2022/11/07 13:34:08;;;;;;;751.30;682.95;;;;;;;;;;4909863;29;25118;-78
2022/11/07 13:36:35;;;;;;;751.58;682.78;;;;;;;;;;4906729;29;25198;-77
2022/11/07 13:39:04;;;;;;;751.35;682.65;;;;;;;;;;4912042;28;20436;-82
2022/11/07 13:41:30;;;;;;;749.80;681.25;;;;;;;;;;4907917;29;20442;-81
2022/11/07 13:44:02;;;;;;;744.20;676.05;;;;;;;;;;4910009;29;20435;-84
2022/11/07 13:46:37;;;;;;;752.50;684.20;;;;;;;;;;4910414;29;20463;-79
2022/11/07 13:49:11;;;;;;;744.13;675.72;;;;;;;;;;4910342;29;25107;-79
2022/11/07 13:51:41;;;;;;;745.25;676.78;;;;;;;;;;4911071;29;25118;-77
2022/11/07 13:54:13;;;;;;;748.15;679.55;;;;;;;;;;4909265;28;20466;-76
2022/11/07 13:56:39;;;;;;;740.55;672.38;;;;;;;;;;4910541;29;20531;-77
2022/11/07 13:59:09;;;;;;;742.00;673.63;;;;;;;;;;4911412;29;20510;-77
2022/11/07 14:01:40;;;;;;;744.58;676.28;;;;;;;;;;4911178;29;20490;-77
2022/11/07 14:04:17;;;;;;;744.45;676.05;;;;;;;;;;4929840;28;21501;-76
2022/11/07 14:06:43;;;;;;;739.67;671.40;;;;;;;;;;4910093;29;20450;-76
2022/11/07 14:09:11;;;;;;;742.67;674.37;;;;;;;;;;4911876;29;20566;-77
2022/11/07 14:11:39;;;;;;;740.00;671.65;;;;;;;;;;4912521;29;20438;-77
2022/11/07 14:14:06;;;;;;;741.42;673.17;;;;;;;;;;4911941;29;20424;-77